createdAt,value
2022-12-11T00:03:38.240Z,13.48
2022-12-11T00:08:40.251Z,14.80
2022-12-11T00:13:42.195Z,14.90
2022-12-11T00:18:44.275Z,13.05
2022-12-11T00:23:45.821Z,13.63
2022-12-11T00:28:47.944Z,14.70
2022-12-11T00:33:50.018Z,14.70
2022-12-11T00:38:52.813Z,15.30
2022-12-11T00:43:54.194Z,14.60
2022-12-11T00:48:55.602Z,13.65
2022-12-11T00:53:57.479Z,13.98
2022-12-11T00:58:58.885Z,15.10
2022-12-11T01:04:00.313Z,15.73
2022-12-11T01:09:20.142Z,16.42
2022-12-11T01:14:21.496Z,15.10
2022-12-11T01:19:25.731Z,16.42
2022-12-11T01:24:27.099Z,16.15
2022-12-11T01:29:28.468Z,14.45
2022-12-11T01:34:30.727Z,15.23
2022-12-11T01:39:32.095Z,15.50
2022-12-11T01:44:33.826Z,15.23
2022-12-11T01:49:36.545Z,16.00
2022-12-11T01:54:38.340Z,14.88
2022-12-11T01:59:43.072Z,14.23
2022-12-11T02:04:46.205Z,15.30
2022-12-11T02:09:48.454Z,13.82
2022-12-11T02:15:16.786Z,14.75
2022-12-11T02:25:56.172Z,16.20
2022-12-11T02:31:14.524Z,15.88
2022-12-11T02:36:18.966Z,14.25
2022-12-11T02:41:23.177Z,16.38
2022-12-11T02:46:25.577Z,16.92
2022-12-11T02:51:32.522Z,17.38
2022-12-11T02:56:40.323Z,12.90
2022-12-11T03:06:49.456Z,15.88
2022-12-11T03:11:51.965Z,16.83
2022-12-11T03:17:04.940Z,19.50
2022-12-11T03:22:15.584Z,15.43
2022-12-11T03:27:36.295Z,16.42
2022-12-11T03:32:49.232Z,15.55
2022-12-11T03:37:53.160Z,17.45
2022-12-11T03:42:57.326Z,15.93
2022-12-11T03:48:01.470Z,16.88
2022-12-11T03:53:04.645Z,16.65
2022-12-11T03:58:06.408Z,16.20
2022-12-11T04:03:14.257Z,16.05
2022-12-11T04:08:17.661Z,17.08
2022-12-11T04:13:19.087Z,16.65
2022-12-11T04:18:38.968Z,15.48
2022-12-11T04:24:12.749Z,16.27
2022-12-11T04:29:15.130Z,17.58
2022-12-11T04:34:16.943Z,17.13
2022-12-11T04:39:18.285Z,18.05
2022-12-11T04:44:19.638Z,17.33
2022-12-11T04:49:20.978Z,19.00
2022-12-11T04:54:22.371Z,18.00
2022-12-11T04:59:23.737Z,18.20
2022-12-11T05:04:25.294Z,19.85
2022-12-11T05:09:27.515Z,19.25
2022-12-11T05:14:31.874Z,16.70
2022-12-11T05:19:33.390Z,20.17
2022-12-11T05:24:34.733Z,17.85
2022-12-11T05:29:36.345Z,19.15
2022-12-11T05:34:37.826Z,19.38
2022-12-11T05:39:39.245Z,18.73
2022-12-11T05:44:40.585Z,19.65
2022-12-11T05:49:41.985Z,23.88
2022-12-11T05:54:43.446Z,21.50
2022-12-11T05:59:45.215Z,19.50
2022-12-11T06:04:46.587Z,21.42
2022-12-11T06:09:47.934Z,21.08
2022-12-11T06:14:49.278Z,20.55
2022-12-11T06:19:50.640Z,18.67
2022-12-11T06:24:52.033Z,19.85
2022-12-11T06:29:53.382Z,19.88
2022-12-11T06:34:54.804Z,19.30
2022-12-11T06:39:56.147Z,20.42
2022-12-11T06:44:59.664Z,23.40
2022-12-11T06:50:02.253Z,20.08
2022-12-11T06:55:03.917Z,20.85
2022-12-11T07:00:06.001Z,20.77
2022-12-11T07:05:07.585Z,19.50
2022-12-11T07:10:09.814Z,19.80
2022-12-11T07:15:11.451Z,19.63
2022-12-11T07:20:13.059Z,19.58
2022-12-11T07:25:14.838Z,20.35
2022-12-11T07:30:16.314Z,21.13
2022-12-11T07:35:17.677Z,21.92
2022-12-11T07:40:19.049Z,19.92
2022-12-11T07:45:20.418Z,20.42
2022-12-11T07:50:22.383Z,20.05
2022-12-11T07:55:23.762Z,21.73
2022-12-11T08:00:25.138Z,18.90
2022-12-11T08:05:26.494Z,19.40
2022-12-11T08:10:27.849Z,19.42
2022-12-11T08:15:29.235Z,22.42
2022-12-11T08:20:31.051Z,21.33
2022-12-11T08:25:32.912Z,23.42
2022-12-11T08:30:34.362Z,20.70
2022-12-11T08:35:39.698Z,20.15
2022-12-11T08:40:41.315Z,20.58
2022-12-11T08:45:42.786Z,19.58
2022-12-11T08:50:44.227Z,19.65
2022-12-11T08:55:45.587Z,21.05
2022-12-11T09:00:47.008Z,19.45
2022-12-11T09:05:48.342Z,20.02
2022-12-11T09:10:49.753Z,20.35
2022-12-11T09:15:51.144Z,18.85
2022-12-11T09:21:03.886Z,19.13
2022-12-11T09:26:06.770Z,21.58
2022-12-11T09:31:10.401Z,20.67
2022-12-11T09:36:12.592Z,21.08
2022-12-11T09:41:22.891Z,19.15
2022-12-11T09:46:25.141Z,20.88
2022-12-11T09:51:36.223Z,20.17
2022-12-11T09:57:16.845Z,19.75
2022-12-11T10:02:34.218Z,20.17
2022-12-11T10:07:49.355Z,15.52
2022-12-11T10:12:59.525Z,20.33
2022-12-11T10:18:05.342Z,21.85
2022-12-11T10:23:09.654Z,20.88
2022-12-11T10:28:16.622Z,20.80
2022-12-11T10:33:23.425Z,21.67
2022-12-11T10:38:29.072Z,19.63
2022-12-11T10:43:39.608Z,21.23
2022-12-11T10:48:59.381Z,23.73
2022-12-11T10:54:32.266Z,23.27
2022-12-11T10:59:49.213Z,22.58
2022-12-11T11:04:51.240Z,23.73
2022-12-11T11:10:10.340Z,24.45
2022-12-11T11:15:19.416Z,24.23
2022-12-11T11:20:27.275Z,22.58
2022-12-11T11:25:32.629Z,23.65
2022-12-11T11:30:37.192Z,21.45
2022-12-11T11:35:40.179Z,18.35
2022-12-11T11:40:53.119Z,18.30
2022-12-11T11:46:04.335Z,16.50
2022-12-11T11:51:22.918Z,18.52
2022-12-11T11:56:28.805Z,20.33
2022-12-11T12:01:30.449Z,18.83
2022-12-11T12:07:07.096Z,19.38
2022-12-11T12:12:24.738Z,16.80
2022-12-11T12:22:52.009Z,16.52
2022-12-11T12:28:18.008Z,16.67
2022-12-11T12:33:33.084Z,14.48
2022-12-11T12:38:52.797Z,16.88
2022-12-11T12:44:13.886Z,17.45
2022-12-11T12:49:38.290Z,15.50
2022-12-11T12:54:42.439Z,18.35
2022-12-11T12:59:54.117Z,17.88
2022-12-11T13:05:22.563Z,17.08
2022-12-11T13:10:38.804Z,17.42
2022-12-11T13:15:45.003Z,15.68
2022-12-11T13:20:50.927Z,14.32
2022-12-11T13:25:55.686Z,13.18
2022-12-11T13:31:04.250Z,13.57
2022-12-11T13:36:33.832Z,12.55
2022-12-11T13:41:37.431Z,10.70
2022-12-11T13:46:39.542Z,11.15
2022-12-11T13:51:52.635Z,12.27
2022-12-11T13:57:07.621Z,10.85
2022-12-11T14:02:20.873Z,11.50
2022-12-11T14:07:30.450Z,9.75
2022-12-11T14:12:32.755Z,10.18
2022-12-11T14:17:36.181Z,8.75
2022-12-11T14:22:37.610Z,10.73
2022-12-11T14:27:48.758Z,9.40
2022-12-11T14:32:52.335Z,11.50
2022-12-11T14:37:54.587Z,10.32
2022-12-11T14:43:01.644Z,11.68
2022-12-11T14:48:16.322Z,9.07
2022-12-11T14:53:23.003Z,12.00
2022-12-11T14:58:26.669Z,12.05
2022-12-11T15:03:36.488Z,9.05
2022-12-11T15:08:38.315Z,11.23
2022-12-11T15:14:02.800Z,10.32
2022-12-11T15:19:04.317Z,12.38
2022-12-11T15:24:07.050Z,11.52
2022-12-11T15:29:31.979Z,11.25
2022-12-11T15:34:53.435Z,11.98
2022-12-11T15:39:56.477Z,12.25
2022-12-11T15:44:59.216Z,12.52
2022-12-11T15:50:16.631Z,11.70
2022-12-11T15:55:19.172Z,10.50
2022-12-11T16:00:22.172Z,10.95
2022-12-11T16:05:24.659Z,14.48
2022-12-11T16:10:27.010Z,13.43
2022-12-11T16:15:28.959Z,13.98
2022-12-11T16:20:31.429Z,14.73
2022-12-11T16:25:33.922Z,14.38
2022-12-11T16:30:37.088Z,15.07
2022-12-11T16:35:38.506Z,13.57
2022-12-11T16:40:41.321Z,15.48
2022-12-11T16:45:43.050Z,14.85
2022-12-11T16:50:44.400Z,17.63
2022-12-11T16:55:45.960Z,15.57
2022-12-11T17:00:48.167Z,16.38
2022-12-11T17:05:49.510Z,15.10
2022-12-11T17:10:52.108Z,16.25
2022-12-11T17:15:53.502Z,16.10
2022-12-11T17:20:55.101Z,14.93
2022-12-11T17:25:56.477Z,15.55
2022-12-11T17:30:58.515Z,15.23
2022-12-11T17:36:01.709Z,12.00
2022-12-11T17:41:15.504Z,12.18
2022-12-11T17:46:21.726Z,14.05
2022-12-11T17:51:24.487Z,17.60
2022-12-11T17:56:27.168Z,16.13
2022-12-11T18:01:28.583Z,17.58
2022-12-11T18:06:31.168Z,15.82
2022-12-11T18:11:33.068Z,16.48
2022-12-11T18:16:37.978Z,17.80
2022-12-11T18:21:42.732Z,16.90
2022-12-11T18:26:44.189Z,17.88
2022-12-11T18:31:45.603Z,18.55
2022-12-11T18:36:47.026Z,17.65
2022-12-11T18:42:03.583Z,15.10
2022-12-11T18:47:09.758Z,16.38
2022-12-11T18:52:11.179Z,14.85
2022-12-11T18:57:12.701Z,15.13
2022-12-11T19:02:14.212Z,15.68
2022-12-11T19:07:15.662Z,15.27
2022-12-11T19:12:17.064Z,17.65
2022-12-11T19:17:18.461Z,18.13
2022-12-11T19:22:20.369Z,17.90
2022-12-11T19:27:21.760Z,20.45
2022-12-11T19:32:23.195Z,19.25
2022-12-11T19:37:24.677Z,19.10
2022-12-11T19:42:26.644Z,20.38
2022-12-11T19:47:27.991Z,20.55
2022-12-11T19:52:29.422Z,20.17
2022-12-11T19:57:34.301Z,18.90
2022-12-11T20:02:35.721Z,20.98
2022-12-11T20:07:37.149Z,20.45
2022-12-11T20:12:38.673Z,20.10
2022-12-11T20:17:44.515Z,19.92
2022-12-11T20:22:46.003Z,20.67
2022-12-11T20:27:47.899Z,22.90
2022-12-11T20:32:52.838Z,21.27
2022-12-11T20:37:54.218Z,20.95
2022-12-11T20:42:55.568Z,21.73
2022-12-11T20:47:56.928Z,23.00
2022-12-11T20:52:58.638Z,22.88
2022-12-11T20:57:59.994Z,21.48
2022-12-11T21:03:01.372Z,22.27
2022-12-11T21:08:02.823Z,24.08
2022-12-11T21:13:04.211Z,20.90
2022-12-11T21:18:07.044Z,23.52
2022-12-11T21:23:08.440Z,21.58
2022-12-11T21:28:09.827Z,21.25
2022-12-11T21:33:11.523Z,24.40
2022-12-11T21:38:13.582Z,24.63
2022-12-11T21:43:15.167Z,24.67
2022-12-11T21:48:16.531Z,23.77
2022-12-11T21:53:17.938Z,21.55
2022-12-11T21:58:19.305Z,21.50
2022-12-11T22:03:20.646Z,19.88
2022-12-11T22:08:22.129Z,20.98
2022-12-11T22:13:23.701Z,21.58
2022-12-11T22:18:28.021Z,22.15
2022-12-11T22:23:29.597Z,21.73
2022-12-11T22:28:30.953Z,19.40
2022-12-11T22:33:32.304Z,21.25
2022-12-11T22:38:34.531Z,20.45
2022-12-11T22:43:35.863Z,22.20
2022-12-11T22:48:37.211Z,22.13
2022-12-11T22:53:38.986Z,21.77
2022-12-11T22:58:40.821Z,21.05
2022-12-11T23:03:42.301Z,22.55
2022-12-11T23:08:44.257Z,20.90
2022-12-11T23:13:45.766Z,21.38
2022-12-11T23:18:47.302Z,20.17
2022-12-11T23:23:49.221Z,21.17
2022-12-11T23:28:50.631Z,21.25
2022-12-11T23:33:52.545Z,21.38
2022-12-11T23:38:55.127Z,20.58
2022-12-11T23:43:56.642Z,20.13
2022-12-11T23:48:58.023Z,21.33
2022-12-11T23:53:59.452Z,21.13
2022-12-11T23:59:01.232Z,21.63
